Weather History for KBVU - February, 2014

Change the Weather History Date:

Sunday, February 16, 2014

  Actual Average (KLAS) Record (KLAS)
Temperature  
Mean Temperature 68 °F 53 °F  
Max Temperature 80 °F 63 °F 81 °F (2014)
Min Temperature 55 °F 44 °F 24 °F (1949)
Degree Days  
Heating Degree Days 0 12  
Month to date heating degree days 215  
Since 1 July heating degree days 1567  
Cooling Degree Days 2 0  
Month to date cooling degree days 0  
Year to date cooling degree days 0  
Growing Degree Days 18 (Base 50)    
Moisture  
Dew Point 19 °F    
Average Humidity 16    
Maximum Humidity 38    
Minimum Humidity 8    
Precipitation  
Precipitation 0.00 in 0.04 in 0.95 in (1980)
Month to date precipitation 0.40  
Year to date precipitation 0.94  
Snow  
Snow 0.00 in 0.00 in 0.00 in (2012)
Month to date snowfall 0.0  
Since 1 July snowfall 0.2  
Snow Depth -    
Sea Level Pressure  
Sea Level Pressure 29.98 in    
Wind  
Wind Speed 4 mph (NW)    
Max Wind Speed 17 mph    
Max Gust Speed 18 mph    
Visibility 10 miles    
Events      
T = Trace of Precipitation, MM = Missing Value Source: NWS Daily Summary

Daily Weather History Graph

Daily Weather History Graph

Search for Another Location

Airport or City:

Trip Planner

Search our weather history database for the weather conditions in past years. The results will help you decide how hot, cold, wet, or windy it might be!

Date:

Astronomy

Feb. 16, 2014 Rise Set
Actual Time 6:25 AM PST 5:22 PM PST
Civil Twilight 5:59 AM PST 5:48 PM PST
Nautical Twilight 5:29 AM PST 6:18 PM PST
Astronomical Twilight 4:59 AM PST 6:47 PM PST
Moon 7:17 PM PST (2/16) 7:01 AM PST (2/16)
Length of Visible Light 11h 48m
Length of Day
10h 56m
Full, 97% of the Moon is Illuminated
Feb 16
Full
Feb 22
Last Quarter
Mar 1
New
Mar 8
First Quarter
Mar 16
Full

Hourly Weather History & Observations

Time (PST) Temp. Dew Point Humidity Pressure Visibility Wind Dir Wind Speed Gust Speed Precip Events Conditions
12:15 AM 55.4 °F 30.2 °F 38% 29.94 in 10.0 mi Calm Calm - N/A   Clear
12:35 AM 55.4 °F 26.6 °F 33% 29.93 in 10.0 mi NE 3.5 mph - N/A   Clear
12:55 AM 57.2 °F 24.8 °F 29% 29.92 in 10.0 mi NE 4.6 mph - N/A   Clear
1:15 AM 59.0 °F 24.8 °F 27% 29.92 in 10.0 mi ENE 3.5 mph - N/A   Clear
1:35 AM 57.2 °F 24.8 °F 29% 29.92 in 10.0 mi ENE 6.9 mph - N/A   Clear
1:55 AM 57.2 °F 26.6 °F 31% 29.91 in 10.0 mi ENE 5.8 mph - N/A   Clear
2:15 AM 57.2 °F 24.8 °F 29% 29.91 in 10.0 mi Calm Calm - N/A   Clear
2:35 AM 62.6 °F 19.4 °F 19% 29.90 in 10.0 mi Calm Calm - N/A   Clear
2:55 AM 60.8 °F 19.4 °F 20% 29.90 in 10.0 mi Calm Calm - N/A   Clear
3:15 AM 59.0 °F 19.4 °F 22% 29.90 in 10.0 mi Calm Calm - N/A   Clear
3:35 AM 62.6 °F 17.6 °F 18% 29.90 in 10.0 mi Calm Calm - N/A   Clear
3:55 AM 62.6 °F 19.4 °F 19% 29.90 in 10.0 mi Calm Calm - N/A   Clear
4:15 AM 59.0 °F 23.0 °F 25% 29.91 in 10.0 mi Calm Calm - N/A   Clear
4:35 AM 59.0 °F 23.0 °F 25% 29.91 in 10.0 mi Calm Calm - N/A   Clear
4:55 AM 62.6 °F 17.6 °F 18% 29.92 in 10.0 mi WSW 4.6 mph - N/A   Clear
5:15 AM 64.4 °F 17.6 °F 16% 29.92 in 10.0 mi West 3.5 mph - N/A   Clear
5:35 AM 64.4 °F 17.6 °F 16% 29.93 in 10.0 mi Calm Calm - N/A   Clear
5:55 AM 64.4 °F 19.4 °F 18% 29.93 in 10.0 mi Calm Calm - N/A   Clear
6:15 AM 62.6 °F 17.6 °F 18% 29.93 in 10.0 mi Calm Calm - N/A   Clear
6:35 AM 64.4 °F 17.6 °F 16% 29.93 in 10.0 mi East 5.8 mph - N/A   Clear
6:55 AM 64.4 °F 19.4 °F 18% 29.94 in 10.0 mi Calm Calm - N/A   Clear
7:15 AM 64.4 °F 21.2 °F 19% 29.95 in 10.0 mi Calm Calm - N/A   Clear
7:35 AM 64.4 °F 23.0 °F 21% 29.96 in 10.0 mi Calm Calm - N/A   Clear
7:55 AM 62.6 °F 24.8 °F 24% 29.96 in 10.0 mi Calm Calm - N/A   Clear
8:15 AM 66.2 °F 23.0 °F 19% 29.97 in 10.0 mi ESE 8.1 mph - N/A   Clear
8:35 AM 64.4 °F 23.0 °F 21% 29.97 in 10.0 mi SSE 6.9 mph - N/A   Clear
8:55 AM 66.2 °F 23.0 °F 19% 29.96 in 10.0 mi South 10.4 mph - N/A   Clear
9:15 AM 68.0 °F 23.0 °F 18% 29.97 in - SSE 9.2 mph - N/A   Clear
9:35 AM 71.6 °F 24.8 °F 17% 29.97 in 10.0 mi SSE 6.9 mph - N/A   Clear
9:55 AM 73.4 °F 23.0 °F 15% 29.98 in 10.0 mi SSE 10.4 mph - N/A   Clear
10:15 AM 75.2 °F 24.8 °F 15% 29.99 in 10.0 mi South 10.4 mph - N/A   Clear
10:35 AM 77.0 °F 23.0 °F 13% 29.99 in 10.0 mi SW 10.4 mph - N/A   Clear
10:55 AM 77.0 °F 23.0 °F 13% 29.99 in 10.0 mi SW 17.3 mph - N/A   Clear
11:15 AM 77.0 °F 23.0 °F 13% 29.99 in 10.0 mi SW 9.2 mph 18.4 mph N/A   Clear
11:35 AM 78.8 °F 23.0 °F 13% 29.98 in 10.0 mi SW 16.1 mph - N/A   Clear
11:55 AM 78.8 °F 23.0 °F 13% 29.97 in 10.0 mi SSW 13.8 mph - N/A   Clear
12:15 PM 78.8 °F 23.0 °F 13% 29.96 in 10.0 mi SSW 15.0 mph - N/A   Clear
12:35 PM 78.8 °F 21.2 °F 12% 29.96 in 8.0 mi SW 9.2 mph 17.3 mph N/A   Clear
12:55 PM 78.8 °F 21.2 °F 12% 29.95 in 10.0 mi Variable 5.8 mph 12.7 mph N/A   Clear
1:15 PM 78.8 °F 21.2 °F 12% 29.95 in 10.0 mi SW 5.8 mph 12.7 mph N/A   Clear
1:35 PM 80.6 °F 21.2 °F 11% 29.95 in 10.0 mi WNW 5.8 mph - N/A   Clear
1:55 PM 80.6 °F 19.4 °F 10% 29.96 in 10.0 mi Variable 5.8 mph 12.7 mph N/A   Clear
2:15 PM 80.6 °F 19.4 °F 10% 29.96 in 10.0 mi NNE 10.4 mph - N/A   Clear
2:35 PM 80.6 °F 19.4 °F 10% 29.96 in 10.0 mi NE 9.2 mph - N/A   Clear
2:55 PM 80.6 °F 17.6 °F 10% 29.97 in 10.0 mi NNW 9.2 mph - N/A   Clear
3:15 PM 80.6 °F 17.6 °F 10% 29.97 in 10.0 mi NW 6.9 mph 12.7 mph N/A   Clear
3:35 PM 80.6 °F 15.8 °F 9% 29.97 in 10.0 mi NNW 4.6 mph 11.5 mph N/A   Clear
3:55 PM 78.8 °F 15.8 °F 9% 29.98 in 10.0 mi West 6.9 mph 16.1 mph N/A   Clear
4:15 PM 78.8 °F 12.2 °F 8% 29.98 in 10.0 mi NW 12.7 mph - N/A   Clear
4:35 PM 78.8 °F 14.0 °F 9% 29.99 in 10.0 mi NNW 5.8 mph - N/A   Clear
4:55 PM 77.0 °F 14.0 °F 9% 30.00 in 10.0 mi NW 9.2 mph - N/A   Clear
5:15 PM 75.2 °F 14.0 °F 10% 30.01 in 10.0 mi NW 6.9 mph - N/A   Clear
5:35 PM 71.6 °F 15.8 °F 12% 30.01 in 10.0 mi NNW 4.6 mph - N/A   Clear
5:55 PM 69.8 °F 15.8 °F 13% 30.02 in 10.0 mi NNW 8.1 mph - N/A   Clear
6:15 PM 68.0 °F 17.6 °F 15% 30.02 in 10.0 mi NNW 5.8 mph - N/A   Clear
6:35 PM 66.2 °F 17.6 °F 15% 30.03 in 10.0 mi NNW 6.9 mph - N/A   Clear
6:55 PM 66.2 °F 17.6 °F 15% 30.03 in 10.0 mi NNW 6.9 mph - N/A   Clear
7:15 PM 64.4 °F 17.6 °F 16% 30.04 in 10.0 mi Calm Calm - N/A   Clear
7:35 PM 66.2 °F 15.8 °F 14% 30.04 in 10.0 mi Calm Calm - N/A   Clear
7:55 PM 60.8 °F 19.4 °F 20% 30.05 in 10.0 mi Calm Calm - N/A   Clear
8:15 PM 62.6 °F 17.6 °F 18% 30.06 in 10.0 mi Calm Calm - N/A   Clear
8:35 PM 62.6 °F 17.6 °F 18% 30.07 in 10.0 mi Calm Calm - N/A   Clear
8:55 PM 60.8 °F 17.6 °F 19% 30.07 in 10.0 mi Calm Calm - N/A   Clear
9:15 PM 62.6 °F 12.2 °F 14% 30.08 in 10.0 mi Calm Calm - N/A   Clear
9:35 PM 68.0 °F 5.0 °F 8% 30.08 in 10.0 mi Variable 6.9 mph - N/A   Clear
9:55 PM 68.0 °F 5.0 °F 8% 30.08 in 10.0 mi NW 5.8 mph 12.7 mph N/A   Clear
10:15 PM 66.2 °F 6.8 °F 10% 30.09 in 10.0 mi Calm Calm - N/A   Clear
10:35 PM 66.2 °F 3.2 °F 8% 30.10 in 10.0 mi Calm Calm - N/A   Clear
10:55 PM 64.4 °F 5.0 °F 10% 30.10 in 10.0 mi North 3.5 mph - N/A   Clear
11:15 PM 64.4 °F 3.2 °F 9% 30.10 in 10.0 mi NNW 4.6 mph - N/A   Clear
11:35 PM 59.0 °F 5.0 °F 12% 30.10 in 10.0 mi North 6.9 mph - N/A   Clear
11:55 PM 59.0 °F 14.0 °F 17% 30.10 in 10.0 mi NNE 3.5 mph - N/A   Clear